sensor_id;sensor_type;location;lat;lon;timestamp;P1;durP1;ratioP1;P2;durP2;ratioP2
46198;SDS011;31928;52.104;10.030;2024-02-26T03:53:19;4.32;;;4.13;;
46198;SDS011;31928;52.104;10.030;2024-02-26T12:07:45;4.53;;;4.15;;
46198;SDS011;31928;52.104;10.030;2024-02-26T12:10:23;4.15;;;3.85;;
46198;SDS011;31928;52.104;10.030;2024-02-26T12:13:34;4.80;;;4.40;;
46198;SDS011;31928;52.104;10.030;2024-02-26T12:15:57;4.15;;;3.95;;
46198;SDS011;31928;52.104;10.030;2024-02-26T12:18:25;3.85;;;3.65;;
46198;SDS011;31928;52.104;10.030;2024-02-26T12:21:01;5.22;;;4.82;;
46198;SDS011;31928;52.104;10.030;2024-02-26T12:23:29;9.90;;;4.40;;
46198;SDS011;31928;52.104;10.030;2024-02-26T12:25:59;4.88;;;4.47;;
46198;SDS011;31928;52.104;10.030;2024-02-26T12:28:30;4.63;;;4.22;;
46198;SDS011;31928;52.104;10.030;2024-02-26T12:30:57;4.50;;;4.20;;
46198;SDS011;31928;52.104;10.030;2024-02-26T12:33:26;4.65;;;4.22;;
46198;SDS011;31928;52.104;10.030;2024-02-26T12:35:54;4.53;;;4.13;;
46198;SDS011;31928;52.104;10.030;2024-02-26T12:38:20;4.88;;;4.47;;
46198;SDS011;31928;52.104;10.030;2024-02-26T12:40:47;4.97;;;4.57;;
46198;SDS011;31928;52.104;10.030;2024-02-26T12:43:15;4.50;;;4.18;;
46198;SDS011;31928;52.104;10.030;2024-02-26T12:45:42;4.15;;;3.85;;
46198;SDS011;31928;52.104;10.030;2024-02-26T12:48:14;5.35;;;4.88;;
46198;SDS011;31928;52.104;10.030;2024-02-26T12:50:44;5.07;;;4.68;;
46198;SDS011;31928;52.104;10.030;2024-02-26T12:53:11;4.28;;;3.97;;
46198;SDS011;31928;52.104;10.030;2024-02-26T12:55:38;5.18;;;4.68;;
46198;SDS011;31928;52.104;10.030;2024-02-26T12:58:06;5.30;;;4.90;;
46198;SDS011;31928;52.104;10.030;2024-02-26T13:00:33;5.63;;;5.20;;
46198;SDS011;31928;52.104;10.030;2024-02-26T13:03:00;5.03;;;4.70;;
46198;SDS011;31928;52.104;10.030;2024-02-26T13:05:28;5.72;;;5.32;;
46198;SDS011;31928;52.104;10.030;2024-02-26T13:07:55;6.47;;;5.97;;
46198;SDS011;31928;52.104;10.030;2024-02-26T13:12:49;5.63;;;5.13;;
46198;SDS011;31928;52.104;10.030;2024-02-26T13:15:20;10.55;;;6.20;;
46198;SDS011;31928;52.104;10.030;2024-02-26T13:17:48;4.57;;;4.28;;
46198;SDS011;31928;52.104;10.030;2024-02-26T13:20:28;5.20;;;4.80;;
46198;SDS011;31928;52.104;10.030;2024-02-26T13:23:10;5.20;;;4.90;;
46198;SDS011;31928;52.104;10.030;2024-02-26T13:25:38;5.15;;;4.75;;
46198;SDS011;31928;52.104;10.030;2024-02-26T13:28:15;5.00;;;4.68;;
46198;SDS011;31928;52.104;10.030;2024-02-26T13:30:53;5.20;;;4.72;;
46198;SDS011;31928;52.104;10.030;2024-02-26T13:33:24;5.50;;;5.10;;
46198;SDS011;31928;52.104;10.030;2024-02-26T13:35:52;5.40;;;5.00;;
46198;SDS011;31928;52.104;10.030;2024-02-26T13:38:20;5.10;;;4.70;;
46198;SDS011;31928;52.104;10.030;2024-02-26T13:40:46;5.47;;;5.07;;
46198;SDS011;31928;52.104;10.030;2024-02-26T13:43:14;5.65;;;5.25;;
46198;SDS011;31928;52.104;10.030;2024-02-26T13:48:08;6.43;;;6.03;;
46198;SDS011;31928;52.104;10.030;2024-02-26T13:50:38;5.95;;;5.45;;
46198;SDS011;31928;52.104;10.030;2024-02-26T13:53:05;5.63;;;5.22;;
46198;SDS011;31928;52.104;10.030;2024-02-26T13:55:32;5.18;;;4.72;;
46198;SDS011;31928;52.104;10.030;2024-02-26T13:57:59;6.13;;;5.50;;
46198;SDS011;31928;52.104;10.030;2024-02-26T14:00:30;5.78;;;5.30;;
46198;SDS011;31928;52.104;10.030;2024-02-26T14:03:00;5.20;;;4.80;;
46198;SDS011;31928;52.104;10.030;2024-02-26T14:05:34;5.70;;;5.15;;
46198;SDS011;31928;52.104;10.030;2024-02-26T14:08:01;5.57;;;5.13;;
46198;SDS011;31928;52.104;10.030;2024-02-26T14:10:29;6.00;;;5.40;;
46198;SDS011;31928;52.104;10.030;2024-02-26T14:12:57;5.78;;;5.25;;
46198;SDS011;31928;52.104;10.030;2024-02-26T14:15:25;5.88;;;5.38;;
46198;SDS011;31928;52.104;10.030;2024-02-26T14:17:52;6.18;;;5.68;;
46198;SDS011;31928;52.104;10.030;2024-02-26T14:20:23;7.22;;;6.65;;
46198;SDS011;31928;52.104;10.030;2024-02-26T14:22:51;6.93;;;6.38;;
46198;SDS011;31928;52.104;10.030;2024-02-26T14:25:21;5.85;;;5.43;;
46198;SDS011;31928;52.104;10.030;2024-02-26T14:27:48;6.28;;;5.72;;
46198;SDS011;31928;52.104;10.030;2024-02-26T14:32:44;6.43;;;5.95;;
46198;SDS011;31928;52.104;10.030;2024-02-26T14:35:11;6.10;;;5.60;;
46198;SDS011;31928;52.104;10.030;2024-02-26T14:37:43;6.95;;;6.35;;
46198;SDS011;31928;52.104;10.030;2024-02-26T14:40:14;7.38;;;6.85;;
46198;SDS011;31928;52.104;10.030;2024-02-26T14:42:41;7.00;;;6.43;;
46198;SDS011;31928;52.104;10.030;2024-02-26T14:45:09;7.32;;;6.50;;
46198;SDS011;31928;52.104;10.030;2024-02-26T14:47:36;7.75;;;7.05;;
46198;SDS011;31928;52.104;10.030;2024-02-26T14:50:03;7.20;;;6.60;;
46198;SDS011;31928;52.104;10.030;2024-02-26T14:52:30;6.88;;;6.38;;
46198;SDS011;31928;52.104;10.030;2024-02-26T14:54:58;7.18;;;6.57;;
46198;SDS011;31928;52.104;10.030;2024-02-26T14:57:24;7.38;;;6.25;;
46198;SDS011;31928;52.104;10.030;2024-02-26T14:59:51;6.65;;;6.03;;
46198;SDS011;31928;52.104;10.030;2024-02-26T15:02:18;6.63;;;6.13;;
46198;SDS011;31928;52.104;10.030;2024-02-26T15:04:45;6.75;;;6.15;;
46198;SDS011;31928;52.104;10.030;2024-02-26T15:07:12;6.93;;;6.32;;
46198;SDS011;31928;52.104;10.030;2024-02-26T15:09:42;7.55;;;6.80;;
46198;SDS011;31928;52.104;10.030;2024-02-26T15:14:37;6.50;;;6.00;;
46198;SDS011;31928;52.104;10.030;2024-02-26T15:19:31;6.77;;;6.17;;
46198;SDS011;31928;52.104;10.030;2024-02-26T15:21:58;6.95;;;6.38;;
46198;SDS011;31928;52.104;10.030;2024-02-26T15:26:51;6.05;;;5.65;;
46198;SDS011;31928;52.104;10.030;2024-02-26T15:29:17;6.93;;;6.43;;
46198;SDS011;31928;52.104;10.030;2024-02-26T15:31:44;7.35;;;6.85;;
46198;SDS011;31928;52.104;10.030;2024-02-26T15:34:11;7.32;;;6.72;;
46198;SDS011;31928;52.104;10.030;2024-02-26T15:36:38;7.25;;;6.70;;
46198;SDS011;31928;52.104;10.030;2024-02-26T15:39:07;6.57;;;6.07;;
46198;SDS011;31928;52.104;10.030;2024-02-26T15:41:34;7.88;;;7.28;;
46198;SDS011;31928;52.104;10.030;2024-02-26T15:44:00;7.75;;;7.05;;
46198;SDS011;31928;52.104;10.030;2024-02-26T15:46:27;6.97;;;6.43;;
46198;SDS011;31928;52.104;10.030;2024-02-26T15:48:54;7.63;;;7.03;;
46198;SDS011;31928;52.104;10.030;2024-02-26T15:51:22;7.10;;;6.50;;
46198;SDS011;31928;52.104;10.030;2024-02-26T15:53:52;8.55;;;7.80;;
46198;SDS011;31928;52.104;10.030;2024-02-26T15:56:20;8.18;;;7.47;;
46198;SDS011;31928;52.104;10.030;2024-02-26T15:58:51;8.25;;;7.47;;
46198;SDS011;31928;52.104;10.030;2024-02-26T16:01:18;7.05;;;6.55;;
46198;SDS011;31928;52.104;10.030;2024-02-26T16:03:51;7.85;;;7.18;;
46198;SDS011;31928;52.104;10.030;2024-02-26T16:06:22;7.10;;;6.47;;
46198;SDS011;31928;52.104;10.030;2024-02-26T16:08:56;6.97;;;6.28;;
46198;SDS011;31928;52.104;10.030;2024-02-26T16:11:23;7.18;;;6.47;;
46198;SDS011;31928;52.104;10.030;2024-02-26T16:16:20;6.53;;;5.93;;
46198;SDS011;31928;52.104;10.030;2024-02-26T16:18:54;7.32;;;6.80;;
46198;SDS011;31928;52.104;10.030;2024-02-26T16:21:31;7.07;;;6.50;;
46198;SDS011;31928;52.104;10.030;2024-02-26T16:23:58;7.38;;;6.68;;
46198;SDS011;31928;52.104;10.030;2024-02-26T16:26:25;7.47;;;6.78;;
46198;SDS011;31928;52.104;10.030;2024-02-26T16:28:52;6.90;;;6.35;;
46198;SDS011;31928;52.104;10.030;2024-02-26T16:31:19;6.93;;;6.43;;
46198;SDS011;31928;52.104;10.030;2024-02-26T16:33:45;6.50;;;6.00;;
46198;SDS011;31928;52.104;10.030;2024-02-26T16:36:12;7.03;;;6.38;;
46198;SDS011;31928;52.104;10.030;2024-02-26T16:41:05;5.85;;;5.47;;
46198;SDS011;31928;52.104;10.030;2024-02-26T16:43:32;6.35;;;5.75;;
46198;SDS011;31928;52.104;10.030;2024-02-26T16:46:01;6.47;;;5.97;;
46198;SDS011;31928;52.104;10.030;2024-02-26T16:48:33;6.88;;;6.38;;
46198;SDS011;31928;52.104;10.030;2024-02-26T16:51:01;7.68;;;6.97;;
46198;SDS011;31928;52.104;10.030;2024-02-26T16:53:29;7.13;;;6.57;;
46198;SDS011;31928;52.104;10.030;2024-02-26T16:55:55;6.88;;;6.45;;
46198;SDS011;31928;52.104;10.030;2024-02-26T16:58:24;6.88;;;6.35;;
46198;SDS011;31928;52.104;10.030;2024-02-26T17:00:51;7.32;;;6.72;;
46198;SDS011;31928;52.104;10.030;2024-02-26T17:03:18;6.68;;;6.07;;
46198;SDS011;31928;52.104;10.030;2024-02-26T17:08:11;6.43;;;5.93;;
46198;SDS011;31928;52.104;10.030;2024-02-26T17:13:05;5.43;;;5.00;;
46198;SDS011;31928;52.104;10.030;2024-02-26T17:17:58;5.60;;;5.30;;
46198;SDS011;31928;52.104;10.030;2024-02-26T17:20:25;5.93;;;5.40;;
46198;SDS011;31928;52.104;10.030;2024-02-26T17:22:51;6.25;;;5.75;;
46198;SDS011;31928;52.104;10.030;2024-02-26T17:25:18;6.13;;;5.63;;
46198;SDS011;31928;52.104;10.030;2024-02-26T17:27:45;6.60;;;6.00;;
46198;SDS011;31928;52.104;10.030;2024-02-26T17:30:12;6.57;;;5.97;;
46198;SDS011;31928;52.104;10.030;2024-02-26T17:35:05;5.60;;;5.20;;
46198;SDS011;31928;52.104;10.030;2024-02-26T17:37:33;5.93;;;5.53;;
46198;SDS011;31928;52.104;10.030;2024-02-26T17:42:26;5.45;;;5.05;;
46198;SDS011;31928;52.104;10.030;2024-02-26T17:44:53;5.63;;;5.22;;
46198;SDS011;31928;52.104;10.030;2024-02-26T17:47:20;6.03;;;5.63;;
46198;SDS011;31928;52.104;10.030;2024-02-26T17:49:46;5.20;;;4.80;;
46198;SDS011;31928;52.104;10.030;2024-02-26T17:54:40;5.25;;;4.85;;
46198;SDS011;31928;52.104;10.030;2024-02-26T17:57:06;5.38;;;4.97;;
46198;SDS011;31928;52.104;10.030;2024-02-26T17:59:33;6.07;;;5.57;;
46198;SDS011;31928;52.104;10.030;2024-02-26T18:02:00;5.55;;;5.15;;
46198;SDS011;31928;52.104;10.030;2024-02-26T18:04:26;6.10;;;5.60;;
46198;SDS011;31928;52.104;10.030;2024-02-26T18:09:20;5.90;;;5.50;;
46198;SDS011;31928;52.104;10.030;2024-02-26T18:11:47;5.70;;;5.30;;
46198;SDS011;31928;52.104;10.030;2024-02-26T18:14:14;6.50;;;5.93;;
46198;SDS011;31928;52.104;10.030;2024-02-26T18:16:41;6.07;;;5.57;;
46198;SDS011;31928;52.104;10.030;2024-02-26T18:19:07;5.82;;;5.25;;
46198;SDS011;31928;52.104;10.030;2024-02-26T18:21:34;5.55;;;5.13;;
46198;SDS011;31928;52.104;10.030;2024-02-26T18:24:01;5.72;;;5.22;;
46198;SDS011;31928;52.104;10.030;2024-02-26T18:26:28;5.18;;;4.60;;
46198;SDS011;31928;52.104;10.030;2024-02-26T18:31:21;4.45;;;4.15;;
46198;SDS011;31928;52.104;10.030;2024-02-26T18:36:15;4.22;;;3.97;;
46198;SDS011;31928;52.104;10.030;2024-02-26T18:38:44;4.80;;;4.45;;
46198;SDS011;31928;52.104;10.030;2024-02-26T18:41:21;4.82;;;4.50;;
46198;SDS011;31928;52.104;10.030;2024-02-26T18:43:49;4.78;;;4.47;;
46198;SDS011;31928;52.104;10.030;2024-02-26T18:46:17;4.72;;;4.43;;
46198;SDS011;31928;52.104;10.030;2024-02-26T18:51:10;4.25;;;4.05;;
46198;SDS011;31928;52.104;10.030;2024-02-26T18:53:39;4.50;;;4.20;;
46198;SDS011;31928;52.104;10.030;2024-02-26T18:56:08;4.90;;;4.60;;
46198;SDS011;31928;52.104;10.030;2024-02-26T18:58:35;4.97;;;4.57;;
46198;SDS011;31928;52.104;10.030;2024-02-26T19:01:02;4.72;;;4.38;;
46198;SDS011;31928;52.104;10.030;2024-02-26T19:03:29;4.38;;;4.07;;
46198;SDS011;31928;52.104;10.030;2024-02-26T19:05:57;4.15;;;3.90;;
46198;SDS011;31928;52.104;10.030;2024-02-26T19:08:24;4.15;;;3.85;;
46198;SDS011;31928;52.104;10.030;2024-02-26T19:10:52;4.03;;;3.83;;
46198;SDS011;31928;52.104;10.030;2024-02-26T19:13:19;4.50;;;4.10;;
46198;SDS011;31928;52.104;10.030;2024-02-26T19:15:46;4.25;;;3.95;;
46198;SDS011;31928;52.104;10.030;2024-02-26T19:18:12;4.28;;;3.97;;
46198;SDS011;31928;52.104;10.030;2024-02-26T19:20:39;4.43;;;4.13;;
46198;SDS011;31928;52.104;10.030;2024-02-26T19:25:33;4.05;;;3.83;;
46198;SDS011;31928;52.104;10.030;2024-02-26T19:28:00;3.47;;;3.28;;
46198;SDS011;31928;52.104;10.030;2024-02-26T19:30:26;3.60;;;3.40;;
46198;SDS011;31928;52.104;10.030;2024-02-26T19:35:20;3.35;;;3.15;;
46198;SDS011;31928;52.104;10.030;2024-02-26T19:40:13;3.78;;;3.47;;
46198;SDS011;31928;52.104;10.030;2024-02-26T19:42:40;3.90;;;3.70;;
46198;SDS011;31928;52.104;10.030;2024-02-26T19:45:07;3.90;;;3.70;;
46198;SDS011;31928;52.104;10.030;2024-02-26T19:47:35;4.00;;;3.80;;
46198;SDS011;31928;52.104;10.030;2024-02-26T19:50:07;3.53;;;3.40;;
46198;SDS011;31928;52.104;10.030;2024-02-26T19:52:35;4.10;;;3.90;;
46198;SDS011;31928;52.104;10.030;2024-02-26T19:55:02;3.78;;;3.58;;
46198;SDS011;31928;52.104;10.030;2024-02-26T19:57:29;3.70;;;3.50;;
46198;SDS011;31928;52.104;10.030;2024-02-26T19:59:57;3.50;;;3.30;;
46198;SDS011;31928;52.104;10.030;2024-02-26T20:02:24;3.55;;;3.35;;
46198;SDS011;31928;52.104;10.030;2024-02-26T20:07:17;3.33;;;3.22;;
46198;SDS011;31928;52.104;10.030;2024-02-26T20:09:46;3.35;;;3.15;;
46198;SDS011;31928;52.104;10.030;2024-02-26T20:12:13;3.30;;;3.10;;
46198;SDS011;31928;52.104;10.030;2024-02-26T20:14:41;3.60;;;3.40;;
46198;SDS011;31928;52.104;10.030;2024-02-26T20:17:09;3.20;;;3.10;;
46198;SDS011;31928;52.104;10.030;2024-02-26T20:19:37;3.63;;;3.42;;
46198;SDS011;31928;52.104;10.030;2024-02-26T20:24:30;3.65;;;3.45;;
46198;SDS011;31928;52.104;10.030;2024-02-26T20:29:23;3.60;;;3.40;;
46198;SDS011;31928;52.104;10.030;2024-02-26T20:34:17;3.35;;;3.15;;
46198;SDS011;31928;52.104;10.030;2024-02-26T20:36:44;3.50;;;3.30;;
46198;SDS011;31928;52.104;10.030;2024-02-26T20:39:11;3.55;;;3.42;;
46198;SDS011;31928;52.104;10.030;2024-02-26T20:41:38;3.60;;;3.40;;
46198;SDS011;31928;52.104;10.030;2024-02-26T20:44:06;4.05;;;3.85;;
46198;SDS011;31928;52.104;10.030;2024-02-26T20:48:59;3.55;;;3.35;;
46198;SDS011;31928;52.104;10.030;2024-02-26T20:51:26;3.78;;;3.58;;
46198;SDS011;31928;52.104;10.030;2024-02-26T20:53:55;3.70;;;3.50;;
46198;SDS011;31928;52.104;10.030;2024-02-26T20:56:23;3.70;;;3.50;;
46198;SDS011;31928;52.104;10.030;2024-02-26T20:58:50;3.50;;;3.30;;
46198;SDS011;31928;52.104;10.030;2024-02-26T21:01:16;4.20;;;3.90;;
46198;SDS011;31928;52.104;10.030;2024-02-26T21:03:43;3.58;;;3.38;;
46198;SDS011;31928;52.104;10.030;2024-02-26T21:08:37;3.78;;;3.58;;
46198;SDS011;31928;52.104;10.030;2024-02-26T21:11:04;4.38;;;4.18;;
46198;SDS011;31928;52.104;10.030;2024-02-26T21:13:32;3.85;;;3.65;;
46198;SDS011;31928;52.104;10.030;2024-02-26T21:18:27;3.58;;;3.40;;
46198;SDS011;31928;52.104;10.030;2024-02-26T21:20:54;3.97;;;3.67;;
46198;SDS011;31928;52.104;10.030;2024-02-26T21:23:24;4.40;;;4.20;;
46198;SDS011;31928;52.104;10.030;2024-02-26T21:25:51;3.47;;;3.30;;
46198;SDS011;31928;52.104;10.030;2024-02-26T21:28:17;4.07;;;3.88;;
46198;SDS011;31928;52.104;10.030;2024-02-26T21:30:44;3.90;;;3.70;;
46198;SDS011;31928;52.104;10.030;2024-02-26T21:33:12;3.97;;;3.72;;
46198;SDS011;31928;52.104;10.030;2024-02-26T21:35:39;3.88;;;3.67;;
46198;SDS011;31928;52.104;10.030;2024-02-26T21:38:06;3.80;;;3.50;;
46198;SDS011;31928;52.104;10.030;2024-02-26T21:40:35;3.80;;;3.60;;
46198;SDS011;31928;52.104;10.030;2024-02-26T21:45:29;4.65;;;4.45;;
46198;SDS011;31928;52.104;10.030;2024-02-26T21:47:57;4.25;;;3.95;;
46198;SDS011;31928;52.104;10.030;2024-02-26T21:50:24;4.13;;;3.83;;
46198;SDS011;31928;52.104;10.030;2024-02-26T21:55:17;4.20;;;3.90;;
46198;SDS011;31928;52.104;10.030;2024-02-26T21:57:45;4.10;;;3.90;;
46198;SDS011;31928;52.104;10.030;2024-02-26T22:02:39;4.10;;;3.90;;
46198;SDS011;31928;52.104;10.030;2024-02-26T22:05:06;4.13;;;3.92;;
46198;SDS011;31928;52.104;10.030;2024-02-26T22:07:33;4.63;;;4.32;;
46198;SDS011;31928;52.104;10.030;2024-02-26T22:12:27;4.65;;;4.30;;
46198;SDS011;31928;52.104;10.030;2024-02-26T22:17:20;4.40;;;4.10;;
46198;SDS011;31928;52.104;10.030;2024-02-26T22:19:47;4.13;;;3.85;;
46198;SDS011;31928;52.104;10.030;2024-02-26T22:22:14;4.50;;;4.20;;
46198;SDS011;31928;52.104;10.030;2024-02-26T22:24:41;4.32;;;4.13;;
46198;SDS011;31928;52.104;10.030;2024-02-26T22:27:07;4.32;;;3.97;;
46198;SDS011;31928;52.104;10.030;2024-02-26T22:29:34;4.93;;;4.57;;
46198;SDS011;31928;52.104;10.030;2024-02-26T22:32:00;4.35;;;4.13;;
46198;SDS011;31928;52.104;10.030;2024-02-26T22:34:27;5.00;;;4.60;;
46198;SDS011;31928;52.104;10.030;2024-02-26T22:36:55;4.72;;;4.43;;
46198;SDS011;31928;52.104;10.030;2024-02-26T22:39:22;4.45;;;4.15;;
46198;SDS011;31928;52.104;10.030;2024-02-26T22:44:15;4.68;;;4.47;;
46198;SDS011;31928;52.104;10.030;2024-02-26T22:46:43;4.35;;;4.00;;
46198;SDS011;31928;52.104;10.030;2024-02-26T22:51:36;4.78;;;4.47;;
46198;SDS011;31928;52.104;10.030;2024-02-26T22:54:03;5.43;;;5.03;;
46198;SDS011;31928;52.104;10.030;2024-02-26T22:56:30;5.25;;;4.90;;
46198;SDS011;31928;52.104;10.030;2024-02-26T22:58:56;6.25;;;5.80;;
46198;SDS011;31928;52.104;10.030;2024-02-26T23:01:23;5.55;;;5.22;;
46198;SDS011;31928;52.104;10.030;2024-02-26T23:03:51;6.03;;;5.63;;
46198;SDS011;31928;52.104;10.030;2024-02-26T23:06:17;5.72;;;5.32;;
46198;SDS011;31928;52.104;10.030;2024-02-26T23:08:44;6.75;;;6.25;;
46198;SDS011;31928;52.104;10.030;2024-02-26T23:11:11;6.70;;;6.10;;
46198;SDS011;31928;52.104;10.030;2024-02-26T23:16:05;5.63;;;5.30;;
46198;SDS011;31928;52.104;10.030;2024-02-26T23:18:32;6.20;;;5.70;;
46198;SDS011;31928;52.104;10.030;2024-02-26T23:20:59;6.78;;;6.20;;
46198;SDS011;31928;52.104;10.030;2024-02-26T23:23:26;7.38;;;6.88;;
46198;SDS011;31928;52.104;10.030;2024-02-26T23:25:52;7.22;;;6.63;;
46198;SDS011;31928;52.104;10.030;2024-02-26T23:28:19;8.35;;;7.65;;
46198;SDS011;31928;52.104;10.030;2024-02-26T23:30:46;7.50;;;6.90;;
46198;SDS011;31928;52.104;10.030;2024-02-26T23:33:12;6.65;;;6.15;;
46198;SDS011;31928;52.104;10.030;2024-02-26T23:35:39;7.80;;;7.13;;
46198;SDS011;31928;52.104;10.030;2024-02-26T23:38:06;7.72;;;7.15;;
46198;SDS011;31928;52.104;10.030;2024-02-26T23:40:32;7.00;;;6.50;;
46198;SDS011;31928;52.104;10.030;2024-02-26T23:43:00;8.02;;;7.32;;
46198;SDS011;31928;52.104;10.030;2024-02-26T23:45:28;8.32;;;7.63;;
46198;SDS011;31928;52.104;10.030;2024-02-26T23:47:55;7.82;;;7.10;;
46198;SDS011;31928;52.104;10.030;2024-02-26T23:50:21;8.75;;;8.05;;
46198;SDS011;31928;52.104;10.030;2024-02-26T23:52:50;7.75;;;7.05;;
46198;SDS011;31928;52.104;10.030;2024-02-26T23:55:17;8.45;;;7.75;;
46198;SDS011;31928;52.104;10.030;2024-02-26T23:57:46;7.93;;;7.32;;
